sensor_id;sensor_type;location;lat;lon;timestamp;pressure;altitude;pressure_sealevel;temperature;humidity
29359;BME280;16347;53.232;6.556;2022-07-18T00:00:11;102472.13;;;25.22;44.83
29359;BME280;16347;53.232;6.556;2022-07-18T00:02:44;102473.22;;;25.21;44.38
29359;BME280;16347;53.232;6.556;2022-07-18T00:05:14;102475.16;;;25.14;44.58
29359;BME280;16347;53.232;6.556;2022-07-18T00:07:43;102477.94;;;25.14;44.89
29359;BME280;16347;53.232;6.556;2022-07-18T00:10:13;102470.66;;;25.13;44.71
29359;BME280;16347;53.232;6.556;2022-07-18T00:12:41;102469.59;;;25.14;44.41
29359;BME280;16347;53.232;6.556;2022-07-18T00:15:10;102470.44;;;25.14;44.64
29359;BME280;16347;53.232;6.556;2022-07-18T00:17:40;102469.78;;;25.12;44.56
29359;BME280;16347;53.232;6.556;2022-07-18T00:20:15;102462.53;;;25.11;44.51
29359;BME280;16347;53.232;6.556;2022-07-18T00:22:46;102455.69;;;25.07;44.39
29359;BME280;16347;53.232;6.556;2022-07-18T00:25:21;102455.25;;;25.10;44.37
29359;BME280;16347;53.232;6.556;2022-07-18T00:27:53;102452.66;;;25.09;44.14
29359;BME280;16347;53.232;6.556;2022-07-18T00:30:26;102444.75;;;25.06;44.42
29359;BME280;16347;53.232;6.556;2022-07-18T00:32:57;102449.44;;;25.05;44.42
29359;BME280;16347;53.232;6.556;2022-07-18T00:35:29;102456.53;;;25.08;44.19
29359;BME280;16347;53.232;6.556;2022-07-18T00:38:00;102457.41;;;25.08;44.50
29359;BME280;16347;53.232;6.556;2022-07-18T00:40:32;102456.31;;;25.09;44.41
29359;BME280;16347;53.232;6.556;2022-07-18T00:43:02;102467.66;;;25.08;44.07
29359;BME280;16347;53.232;6.556;2022-07-18T00:45:38;102458.03;;;25.10;44.37
29359;BME280;16347;53.232;6.556;2022-07-18T00:48:09;102458.03;;;25.10;44.51
29359;BME280;16347;53.232;6.556;2022-07-18T00:50:39;102455.25;;;25.10;44.65
29359;BME280;16347;53.232;6.556;2022-07-18T00:53:09;102453.53;;;25.09;44.38
29359;BME280;16347;53.232;6.556;2022-07-18T00:55:43;102453.53;;;25.09;44.33
29359;BME280;16347;53.232;6.556;2022-07-18T00:58:14;102462.09;;;25.08;44.14
29359;BME280;16347;53.232;6.556;2022-07-18T01:00:46;102453.94;;;25.06;44.26
29359;BME280;16347;53.232;6.556;2022-07-18T01:03:35;102442.63;;;25.01;44.18
29359;BME280;16347;53.232;6.556;2022-07-18T01:06:05;102440.03;;;24.99;44.56
29359;BME280;16347;53.232;6.556;2022-07-18T01:08:36;102440.91;;;25.00;44.54
29359;BME280;16347;53.232;6.556;2022-07-18T01:11:10;102443.25;;;25.03;44.47
29359;BME280;16347;53.232;6.556;2022-07-18T01:13:43;102439.59;;;25.02;44.93
29359;BME280;16347;53.232;6.556;2022-07-18T01:16:15;102442.63;;;25.01;44.56
29359;BME280;16347;53.232;6.556;2022-07-18T01:18:48;102442.63;;;25.01;44.79
29359;BME280;16347;53.232;6.556;2022-07-18T01:21:23;102438.97;;;25.00;44.77
29359;BME280;16347;53.232;6.556;2022-07-18T01:23:55;102432.56;;;25.00;44.47
29359;BME280;16347;53.232;6.556;2022-07-18T01:26:26;102448.63;;;24.98;44.52
29359;BME280;16347;53.232;6.556;2022-07-18T01:28:57;102454.19;;;24.98;43.75
29359;BME280;16347;53.232;6.556;2022-07-18T01:31:29;102449.03;;;24.95;43.40
29359;BME280;16347;53.232;6.556;2022-07-18T01:34:02;102446.47;;;24.87;43.35
29359;BME280;16347;53.232;6.556;2022-07-18T01:36:35;102434.91;;;24.83;43.48
29359;BME280;16347;53.232;6.556;2022-07-18T01:39:06;102427.63;;;24.82;43.58
29359;BME280;16347;53.232;6.556;2022-07-18T01:41:36;102428.50;;;24.83;43.88
29359;BME280;16347;53.232;6.556;2022-07-18T01:44:08;102417.38;;;24.83;43.58
29359;BME280;16347;53.232;6.556;2022-07-18T01:46:39;102413.53;;;24.84;43.53
29359;BME280;16347;53.232;6.556;2022-07-18T01:49:13;102421.00;;;24.83;43.62
29359;BME280;16347;53.232;6.556;2022-07-18T01:51:49;102419.25;;;24.69;42.27
29359;BME280;16347;53.232;6.556;2022-07-18T01:54:21;102430.81;;;24.60;42.68
29359;BME280;16347;53.232;6.556;2022-07-18T01:56:54;102426.09;;;24.54;42.52
29359;BME280;16347;53.232;6.556;2022-07-18T01:59:26;102432.28;;;24.42;41.84
29359;BME280;16347;53.232;6.556;2022-07-18T02:01:59;102431.63;;;24.27;41.71
29359;BME280;16347;53.232;6.556;2022-07-18T02:04:30;102437.19;;;24.27;42.71
29359;BME280;16347;53.232;6.556;2022-07-18T02:07:19;102435.03;;;24.23;42.27
29359;BME280;16347;53.232;6.556;2022-07-18T02:09:49;102432.03;;;24.24;43.17
29359;BME280;16347;53.232;6.556;2022-07-18T02:12:21;102430.34;;;24.23;41.84
29359;BME280;16347;53.232;6.556;2022-07-18T02:14:53;102426.50;;;24.31;42.65
29359;BME280;16347;53.232;6.556;2022-07-18T02:17:24;102422.44;;;24.33;42.70
29359;BME280;16347;53.232;6.556;2022-07-18T02:19:55;102411.94;;;24.29;41.58
29359;BME280;16347;53.232;6.556;2022-07-18T02:22:27;102397.19;;;24.22;42.12
29359;BME280;16347;53.232;6.556;2022-07-18T02:24:58;102407.88;;;24.18;42.85
29359;BME280;16347;53.232;6.556;2022-07-18T02:27:29;102390.75;;;24.21;42.89
29359;BME280;16347;53.232;6.556;2022-07-18T02:30:00;102383.94;;;24.17;41.74
29359;BME280;16347;53.232;6.556;2022-07-18T02:32:30;102392.66;;;24.14;41.92
29359;BME280;16347;53.232;6.556;2022-07-18T02:35:04;102374.03;;;24.08;42.32
29359;BME280;16347;53.232;6.556;2022-07-18T02:37:38;102381.25;;;23.83;41.46
29359;BME280;16347;53.232;6.556;2022-07-18T02:40:11;102385.44;;;23.59;41.39
29359;BME280;16347;53.232;6.556;2022-07-18T02:42:40;102384.50;;;23.45;41.78
29359;BME280;16347;53.232;6.556;2022-07-18T02:45:12;102389.47;;;23.22;42.54
29359;BME280;16347;53.232;6.556;2022-07-18T02:47:44;102389.72;;;23.27;42.76
29359;BME280;16347;53.232;6.556;2022-07-18T02:50:15;102387.78;;;23.28;42.83
29359;BME280;16347;53.232;6.556;2022-07-18T02:52:47;102394.84;;;23.30;43.06
29359;BME280;16347;53.232;6.556;2022-07-18T02:55:18;102403.31;;;23.43;42.85
29359;BME280;16347;53.232;6.556;2022-07-18T02:57:48;102404.81;;;23.46;42.09
29359;BME280;16347;53.232;6.556;2022-07-18T03:00:20;102399.25;;;23.46;42.06
29359;BME280;16347;53.232;6.556;2022-07-18T03:02:51;102414.47;;;23.57;42.70
29359;BME280;16347;53.232;6.556;2022-07-18T03:05:22;102399.31;;;23.59;42.55
29359;BME280;16347;53.232;6.556;2022-07-18T03:07:52;102397.44;;;23.66;42.28
29359;BME280;16347;53.232;6.556;2022-07-18T03:10:20;102397.44;;;23.73;42.65
29359;BME280;16347;53.232;6.556;2022-07-18T03:12:48;102386.81;;;23.83;42.69
29359;BME280;16347;53.232;6.556;2022-07-18T03:15:16;102384.03;;;23.89;42.48
29359;BME280;16347;53.232;6.556;2022-07-18T03:17:44;102378.06;;;23.92;41.91
29359;BME280;16347;53.232;6.556;2022-07-18T03:20:12;102374.44;;;23.98;42.05
29359;BME280;16347;53.232;6.556;2022-07-18T03:22:40;102368.69;;;24.00;41.48
29359;BME280;16347;53.232;6.556;2022-07-18T03:25:11;102373.16;;;24.01;41.86
29359;BME280;16347;53.232;6.556;2022-07-18T03:27:42;102367.50;;;23.68;40.75
29359;BME280;16347;53.232;6.556;2022-07-18T03:30:11;102353.41;;;23.63;41.62
29359;BME280;16347;53.232;6.556;2022-07-18T03:32:39;102346.94;;;23.49;40.91
29359;BME280;16347;53.232;6.556;2022-07-18T03:35:07;102333.47;;;23.46;41.66
29359;BME280;16347;53.232;6.556;2022-07-18T03:37:35;102340.94;;;23.46;41.86
29359;BME280;16347;53.232;6.556;2022-07-18T03:40:05;102353.72;;;23.40;41.88
29359;BME280;16347;53.232;6.556;2022-07-18T03:42:36;102363.38;;;23.51;42.53
29359;BME280;16347;53.232;6.556;2022-07-18T03:45:05;102369.81;;;23.58;42.49
29359;BME280;16347;53.232;6.556;2022-07-18T03:47:33;102373.28;;;23.67;41.84
29359;BME280;16347;53.232;6.556;2022-07-18T03:50:02;102367.28;;;23.63;40.51
29359;BME280;16347;53.232;6.556;2022-07-18T03:52:30;102365.88;;;23.39;40.81
29359;BME280;16347;53.232;6.556;2022-07-18T03:54:58;102361.25;;;23.12;41.58
29359;BME280;16347;53.232;6.556;2022-07-18T03:57:28;102353.75;;;23.06;42.26
29359;BME280;16347;53.232;6.556;2022-07-18T03:59:58;102360.34;;;23.05;41.41
29359;BME280;16347;53.232;6.556;2022-07-18T04:02:26;102362.47;;;23.03;41.69
29359;BME280;16347;53.232;6.556;2022-07-18T04:04:54;102367.16;;;23.03;41.50
29359;BME280;16347;53.232;6.556;2022-07-18T04:07:22;102345.91;;;22.82;41.62
29359;BME280;16347;53.232;6.556;2022-07-18T04:09:50;102348.47;;;22.34;42.57
29359;BME280;16347;53.232;6.556;2022-07-18T04:12:20;102349.97;;;22.37;42.84
29359;BME280;16347;53.232;6.556;2022-07-18T04:14:48;102344.03;;;22.12;42.45
29359;BME280;16347;53.232;6.556;2022-07-18T04:17:17;102338.53;;;21.83;43.04
29359;BME280;16347;53.232;6.556;2022-07-18T04:19:45;102339.34;;;21.77;43.37
29359;BME280;16347;53.232;6.556;2022-07-18T04:22:14;102336.25;;;21.86;42.62
29359;BME280;16347;53.232;6.556;2022-07-18T04:24:42;102326.53;;;21.76;43.36
29359;BME280;16347;53.232;6.556;2022-07-18T04:27:17;102316.06;;;21.71;43.06
29359;BME280;16347;53.232;6.556;2022-07-18T04:29:45;102322.31;;;21.80;43.41
29359;BME280;16347;53.232;6.556;2022-07-18T04:32:13;102319.56;;;21.80;42.79
29359;BME280;16347;53.232;6.556;2022-07-18T04:34:42;102316.84;;;21.86;42.58
29359;BME280;16347;53.232;6.556;2022-07-18T04:37:10;102322.72;;;21.77;42.44
29359;BME280;16347;53.232;6.556;2022-07-18T04:39:39;102325.38;;;21.85;42.26
29359;BME280;16347;53.232;6.556;2022-07-18T04:42:07;102326.03;;;21.87;41.75
29359;BME280;16347;53.232;6.556;2022-07-18T04:44:35;102318.91;;;21.92;41.98
29359;BME280;16347;53.232;6.556;2022-07-18T04:47:03;102314.94;;;21.87;42.14
29359;BME280;16347;53.232;6.556;2022-07-18T04:49:31;102305.31;;;21.83;41.92
29359;BME280;16347;53.232;6.556;2022-07-18T04:52:01;102314.59;;;21.90;42.60
29359;BME280;16347;53.232;6.556;2022-07-18T04:54:29;102316.44;;;22.04;41.87
29359;BME280;16347;53.232;6.556;2022-07-18T04:56:57;102317.94;;;22.07;41.44
29359;BME280;16347;53.232;6.556;2022-07-18T04:59:25;102322.44;;;22.08;41.39
29359;BME280;16347;53.232;6.556;2022-07-18T05:01:59;102312.50;;;21.92;41.34
29359;BME280;16347;53.232;6.556;2022-07-18T05:04:27;102305.16;;;22.06;41.36
29359;BME280;16347;53.232;6.556;2022-07-18T05:06:56;102311.94;;;22.03;40.90
29359;BME280;16347;53.232;6.556;2022-07-18T05:09:28;102300.34;;;21.93;41.39
29359;BME280;16347;53.232;6.556;2022-07-18T05:11:59;102304.03;;;22.00;41.48
29359;BME280;16347;53.232;6.556;2022-07-18T05:14:28;102303.84;;;22.02;41.13
29359;BME280;16347;53.232;6.556;2022-07-18T05:17:02;102304.03;;;22.00;41.22
29359;BME280;16347;53.232;6.556;2022-07-18T05:19:33;102308.59;;;22.08;41.07
29359;BME280;16347;53.232;6.556;2022-07-18T05:22:03;102303.44;;;22.26;41.02
29359;BME280;16347;53.232;6.556;2022-07-18T05:24:38;102303.19;;;22.48;40.71
29359;BME280;16347;53.232;6.556;2022-07-18T05:27:09;102308.03;;;22.68;40.57
29359;BME280;16347;53.232;6.556;2022-07-18T05:29:40;102303.88;;;22.85;40.61
29359;BME280;16347;53.232;6.556;2022-07-18T05:32:13;102308.47;;;22.99;39.70
29359;BME280;16347;53.232;6.556;2022-07-18T05:34:48;102293.97;;;23.10;39.75
29359;BME280;16347;53.232;6.556;2022-07-18T05:37:20;102290.63;;;23.21;39.84
29359;BME280;16347;53.232;6.556;2022-07-18T05:39:51;102287.25;;;23.32;40.40
29359;BME280;16347;53.232;6.556;2022-07-18T05:42:22;102280.94;;;23.45;39.91
29359;BME280;16347;53.232;6.556;2022-07-18T05:45:14;102282.25;;;23.56;40.34
29359;BME280;16347;53.232;6.556;2022-07-18T05:47:45;102266.22;;;23.64;39.49
29359;BME280;16347;53.232;6.556;2022-07-18T05:50:15;102266.03;;;23.72;39.71
29359;BME280;16347;53.232;6.556;2022-07-18T05:52:49;102267.78;;;23.80;39.82
29359;BME280;16347;53.232;6.556;2022-07-18T05:55:21;102269.91;;;23.84;39.78
29359;BME280;16347;53.232;6.556;2022-07-18T05:57:54;102267.13;;;23.91;39.11
29359;BME280;16347;53.232;6.556;2022-07-18T06:00:24;102265.88;;;23.93;39.07
29359;BME280;16347;53.232;6.556;2022-07-18T06:02:53;102269.91;;;23.97;38.67
29359;BME280;16347;53.232;6.556;2022-07-18T06:05:25;102268.84;;;23.98;38.09
29359;BME280;16347;53.232;6.556;2022-07-18T06:07:56;102273.13;;;24.01;38.05
29359;BME280;16347;53.232;6.556;2022-07-18T06:10:34;102271.88;;;24.04;38.12
29359;BME280;16347;53.232;6.556;2022-07-18T06:13:14;102275.47;;;24.04;37.60
29359;BME280;16347;53.232;6.556;2022-07-18T06:15:48;102281.03;;;24.04;37.42
29359;BME280;16347;53.232;6.556;2022-07-18T06:18:23;102285.75;;;24.04;37.20
29359;BME280;16347;53.232;6.556;2022-07-18T06:20:53;102288.31;;;24.05;37.06
29359;BME280;16347;53.232;6.556;2022-07-18T06:23:23;102286.38;;;24.06;36.67
29359;BME280;16347;53.232;6.556;2022-07-18T06:25:57;102293.00;;;24.11;36.58
29359;BME280;16347;53.232;6.556;2022-07-18T06:28:30;102300.72;;;24.09;36.55
29359;BME280;16347;53.232;6.556;2022-07-18T06:31:02;102296.47;;;24.13;36.57
29359;BME280;16347;53.232;6.556;2022-07-18T06:33:33;102289.84;;;24.14;36.06
29359;BME280;16347;53.232;6.556;2022-07-18T06:36:03;102287.91;;;24.15;35.76
29359;BME280;16347;53.232;6.556;2022-07-18T06:38:34;102291.34;;;24.17;36.05
29359;BME280;16347;53.232;6.556;2022-07-18T06:41:10;102293.69;;;24.20;35.69
29359;BME280;16347;53.232;6.556;2022-07-18T06:43:41;102306.94;;;24.18;35.48
29359;BME280;16347;53.232;6.556;2022-07-18T06:46:12;102294.34;;;24.15;35.33
29359;BME280;16347;53.232;6.556;2022-07-18T06:48:42;102298.56;;;24.11;35.49
29359;BME280;16347;53.232;6.556;2022-07-18T06:51:14;102303.09;;;24.12;35.22
29359;BME280;16347;53.232;6.556;2022-07-18T06:53:43;102296.66;;;24.12;35.52
29359;BME280;16347;53.232;6.556;2022-07-18T06:56:15;102293.00;;;24.11;35.28
29359;BME280;16347;53.232;6.556;2022-07-18T06:58:45;102294.09;;;24.10;35.29
29359;BME280;16347;53.232;6.556;2022-07-18T07:01:19;102294.75;;;24.12;35.68
29359;BME280;16347;53.232;6.556;2022-07-18T07:03:49;102293.88;;;24.12;36.04
29359;BME280;16347;53.232;6.556;2022-07-18T07:06:18;102296.06;;;24.16;35.91
29359;BME280;16347;53.232;6.556;2022-07-18T07:08:48;102296.06;;;24.16;36.47
29359;BME280;16347;53.232;6.556;2022-07-18T07:11:20;102288.34;;;24.18;36.24
29359;BME280;16347;53.232;6.556;2022-07-18T07:13:52;102290.25;;;24.18;36.24
29359;BME280;16347;53.232;6.556;2022-07-18T07:16:25;102288.16;;;24.20;36.50
29359;BME280;16347;53.232;6.556;2022-07-18T07:18:56;102291.78;;;24.20;36.21
29359;BME280;16347;53.232;6.556;2022-07-18T07:21:29;102284.50;;;24.19;36.16
29359;BME280;16347;53.232;6.556;2022-07-18T07:24:00;102289.88;;;24.21;36.28
29359;BME280;16347;53.232;6.556;2022-07-18T07:26:32;102287.09;;;24.21;36.40
29359;BME280;16347;53.232;6.556;2022-07-18T07:29:05;102289.44;;;24.24;36.33
29359;BME280;16347;53.232;6.556;2022-07-18T07:31:35;102295.81;;;24.24;36.69
29359;BME280;16347;53.232;6.556;2022-07-18T07:34:06;102289.00;;;24.27;36.92
29359;BME280;16347;53.232;6.556;2022-07-18T07:36:36;102289.19;;;24.25;37.06
29359;BME280;16347;53.232;6.556;2022-07-18T07:39:05;102291.78;;;24.27;36.84
29359;BME280;16347;53.232;6.556;2022-07-18T07:41:36;102290.28;;;24.31;37.45
29359;BME280;16347;53.232;6.556;2022-07-18T07:44:06;102281.72;;;24.32;37.31
29359;BME280;16347;53.232;6.556;2022-07-18T07:46:37;102273.59;;;24.37;37.35
29359;BME280;16347;53.232;6.556;2022-07-18T07:49:05;102268.66;;;24.39;37.45
29359;BME280;16347;53.232;6.556;2022-07-18T07:51:36;102272.06;;;24.41;37.54
29359;BME280;16347;53.232;6.556;2022-07-18T07:54:07;102268.88;;;24.44;37.65
29359;BME280;16347;53.232;6.556;2022-07-18T07:56:41;102259.25;;;24.47;38.09
29359;BME280;16347;53.232;6.556;2022-07-18T07:59:16;102265.25;;;24.50;37.55
29359;BME280;16347;53.232;6.556;2022-07-18T08:01:51;102255.38;;;24.48;37.15
29359;BME280;16347;53.232;6.556;2022-07-18T08:04:23;102246.81;;;24.56;36.96
29359;BME280;16347;53.232;6.556;2022-07-18T08:06:53;102251.94;;;24.59;36.89
29359;BME280;16347;53.232;6.556;2022-07-18T08:09:21;102256.88;;;24.64;37.24
29359;BME280;16347;53.232;6.556;2022-07-18T08:11:50;102262.19;;;24.65;37.20
29359;BME280;16347;53.232;6.556;2022-07-18T08:14:19;102265.63;;;24.67;36.99
29359;BME280;16347;53.232;6.556;2022-07-18T08:16:47;102261.75;;;24.68;36.95
29359;BME280;16347;53.232;6.556;2022-07-18T08:19:16;102264.09;;;24.71;36.91
29359;BME280;16347;53.232;6.556;2022-07-18T08:21:45;102255.34;;;24.74;36.92
29359;BME280;16347;53.232;6.556;2022-07-18T08:24:14;102260.47;;;24.77;36.99
29359;BME280;16347;53.232;6.556;2022-07-18T08:26:42;102258.13;;;24.81;37.24
29359;BME280;16347;53.232;6.556;2022-07-18T08:29:11;102252.75;;;24.86;37.01
29359;BME280;16347;53.232;6.556;2022-07-18T08:31:40;102257.88;;;24.95;37.03
29359;BME280;16347;53.232;6.556;2022-07-18T08:34:09;102247.56;;;25.02;37.48
29359;BME280;16347;53.232;6.556;2022-07-18T08:36:39;102256.56;;;25.05;37.73
29359;BME280;16347;53.232;6.556;2022-07-18T08:39:07;102259.31;;;25.11;37.48
29359;BME280;16347;53.232;6.556;2022-07-18T08:41:36;102254.59;;;25.18;36.70
29359;BME280;16347;53.232;6.556;2022-07-18T08:44:08;102258.16;;;25.25;36.72
29359;BME280;16347;53.232;6.556;2022-07-18T08:46:39;102263.28;;;25.28;37.09
29359;BME280;16347;53.232;6.556;2022-07-18T08:49:08;102251.50;;;25.33;36.49
29359;BME280;16347;53.232;6.556;2022-07-18T08:51:37;102247.81;;;25.39;36.54
29359;BME280;16347;53.232;6.556;2022-07-18T08:54:08;102243.97;;;25.40;35.05
29359;BME280;16347;53.232;6.556;2022-07-18T08:56:38;102231.97;;;25.39;35.35
29359;BME280;16347;53.232;6.556;2022-07-18T08:59:08;102242.50;;;25.37;34.54
29359;BME280;16347;53.232;6.556;2022-07-18T09:01:38;102242.50;;;25.37;34.67
29359;BME280;16347;53.232;6.556;2022-07-18T09:04:06;102247.81;;;25.39;34.92
29359;BME280;16347;53.232;6.556;2022-07-18T09:06:48;102245.03;;;25.39;34.64
29359;BME280;16347;53.232;6.556;2022-07-18T09:09:17;102243.75;;;25.41;34.13
29359;BME280;16347;53.232;6.556;2022-07-18T09:11:50;102238.41;;;25.40;34.01
29359;BME280;16347;53.232;6.556;2022-07-18T09:14:28;102236.03;;;25.43;34.04
29359;BME280;16347;53.232;6.556;2022-07-18T09:17:03;102244.38;;;25.43;34.24
29359;BME280;16347;53.232;6.556;2022-07-18T09:19:33;102235.63;;;25.40;34.88
29359;BME280;16347;53.232;6.556;2022-07-18T09:22:18;102227.00;;;25.48;34.93
29359;BME280;16347;53.232;6.556;2022-07-18T09:24:52;102226.75;;;25.49;34.80
29359;BME280;16347;53.232;6.556;2022-07-18T09:27:30;102225.03;;;25.48;34.90
29359;BME280;16347;53.232;6.556;2022-07-18T09:30:17;102242.19;;;25.52;34.72
29359;BME280;16347;53.232;6.556;2022-07-18T09:32:50;102232.16;;;25.51;35.02
29359;BME280;16347;53.232;6.556;2022-07-18T09:35:23;102234.03;;;25.57;35.17
29359;BME280;16347;53.232;6.556;2022-07-18T09:38:00;102226.31;;;25.59;35.68
29359;BME280;16347;53.232;6.556;2022-07-18T09:40:32;102234.22;;;25.62;34.52
29359;BME280;16347;53.232;6.556;2022-07-18T09:43:04;102230.56;;;25.68;33.89
29359;BME280;16347;53.232;6.556;2022-07-18T09:45:34;102230.56;;;25.68;33.48
29359;BME280;16347;53.232;6.556;2022-07-18T09:48:07;102235.66;;;25.71;33.85
29359;BME280;16347;53.232;6.556;2022-07-18T09:50:37;102232.44;;;25.74;33.50
29359;BME280;16347;53.232;6.556;2022-07-18T09:53:12;102237.31;;;25.79;33.48
29359;BME280;16347;53.232;6.556;2022-07-18T09:56:00;102229.59;;;25.81;32.54
29359;BME280;16347;53.232;6.556;2022-07-18T09:58:33;102238.97;;;25.86;33.25
29359;BME280;16347;53.232;6.556;2022-07-18T10:01:05;102231.66;;;25.92;32.90
29359;BME280;16347;53.232;6.556;2022-07-18T10:03:36;102235.91;;;25.94;33.87
29359;BME280;16347;53.232;6.556;2022-07-18T10:06:07;102226.03;;;25.98;33.57
29359;BME280;16347;53.232;6.556;2022-07-18T10:08:36;102230.91;;;26.03;32.73
29359;BME280;16347;53.232;6.556;2022-07-18T10:11:06;102228.97;;;26.03;32.79
29359;BME280;16347;53.232;6.556;2022-07-18T10:13:38;102233.22;;;26.06;32.75
29359;BME280;16347;53.232;6.556;2022-07-18T10:16:08;102223.56;;;26.09;32.29
29359;BME280;16347;53.232;6.556;2022-07-18T10:18:39;102213.66;;;26.13;32.85
29359;BME280;16347;53.232;6.556;2022-07-18T10:21:09;102222.84;;;26.20;32.68
29359;BME280;16347;53.232;6.556;2022-07-18T10:23:40;102227.75;;;26.24;32.52
29359;BME280;16347;53.232;6.556;2022-07-18T10:26:14;102237.59;;;26.27;32.22
29359;BME280;16347;53.232;6.556;2022-07-18T10:31:33;102225.16;;;26.23;32.62
29359;BME280;16347;53.232;6.556;2022-07-18T10:34:12;102220.25;;;26.25;32.17
29359;BME280;16347;53.232;6.556;2022-07-18T10:37:07;102219.53;;;26.29;32.21
29359;BME280;16347;53.232;6.556;2022-07-18T10:39:38;102224.72;;;26.26;32.36
29359;BME280;16347;53.232;6.556;2022-07-18T10:42:15;102229.63;;;26.30;31.78
29359;BME280;16347;53.232;6.556;2022-07-18T10:44:46;102224.03;;;26.30;31.37
29359;BME280;16347;53.232;6.556;2022-07-18T10:47:15;102228.28;;;26.33;32.07
29359;BME280;16347;53.232;6.556;2022-07-18T10:50:06;102224.38;;;26.40;31.36
29359;BME280;16347;53.232;6.556;2022-07-18T10:52:56;102208.63;;;26.46;30.54
29359;BME280;16347;53.232;6.556;2022-07-18T10:55:33;102211.00;;;26.49;30.25
29359;BME280;16347;53.232;6.556;2022-07-18T10:58:19;102220.81;;;26.51;30.08
29359;BME280;16347;53.232;6.556;2022-07-18T11:00:50;102210.28;;;26.53;29.63
29359;BME280;16347;53.232;6.556;2022-07-18T11:03:30;102211.53;;;26.58;29.88
29359;BME280;16347;53.232;6.556;2022-07-18T11:06:01;102208.88;;;26.63;30.38
29359;BME280;16347;53.232;6.556;2022-07-18T11:08:32;102217.25;;;26.63;29.92
29359;BME280;16347;53.232;6.556;2022-07-18T11:11:10;102206.72;;;26.65;30.54
29359;BME280;16347;53.232;6.556;2022-07-18T11:13:42;102205.78;;;26.71;31.29
29359;BME280;16347;53.232;6.556;2022-07-18T11:16:20;102199.28;;;26.77;30.09
29359;BME280;16347;53.232;6.556;2022-07-18T11:19:16;102194.50;;;26.84;29.78
29359;BME280;16347;53.232;6.556;2022-07-18T11:21:56;102183.50;;;26.89;30.09
29359;BME280;16347;53.232;6.556;2022-07-18T11:24:26;102183.41;;;26.95;29.74
29359;BME280;16347;53.232;6.556;2022-07-18T11:26:55;102191.53;;;26.97;28.37
29359;BME280;16347;53.232;6.556;2022-07-18T11:29:24;102185.25;;;27.01;28.38
29359;BME280;16347;53.232;6.556;2022-07-18T11:31:55;102191.13;;;27.12;28.15
29359;BME280;16347;53.232;6.556;2022-07-18T11:34:25;102191.25;;;27.17;28.20
29359;BME280;16347;53.232;6.556;2022-07-18T11:37:08;102190.56;;;27.21;26.43
29359;BME280;16347;53.232;6.556;2022-07-18T11:39:40;102181.47;;;27.26;27.81
29359;BME280;16347;53.232;6.556;2022-07-18T11:42:10;102182.47;;;27.31;26.97
29359;BME280;16347;53.232;6.556;2022-07-18T11:44:39;102176.41;;;27.34;27.50
29359;BME280;16347;53.232;6.556;2022-07-18T11:47:09;102171.56;;;27.41;28.05
29359;BME280;16347;53.232;6.556;2022-07-18T11:49:53;102174.06;;;27.49;28.20
29359;BME280;16347;53.232;6.556;2022-07-18T11:52:26;102171.53;;;27.60;28.19
29359;BME280;16347;53.232;6.556;2022-07-18T11:55:00;102169.84;;;27.59;28.47
29359;BME280;16347;53.232;6.556;2022-07-18T11:57:33;102163.53;;;27.63;28.97
29359;BME280;16347;53.232;6.556;2022-07-18T12:00:17;102164.78;;;27.79;27.95
29359;BME280;16347;53.232;6.556;2022-07-18T12:03:09;102159.44;;;27.89;28.01
29359;BME280;16347;53.232;6.556;2022-07-18T12:05:43;102157.00;;;28.04;27.92
29359;BME280;16347;53.232;6.556;2022-07-18T12:08:29;102154.09;;;28.11;28.07
29359;BME280;16347;53.232;6.556;2022-07-18T12:11:14;102155.47;;;28.20;28.15
29359;BME280;16347;53.232;6.556;2022-07-18T12:13:48;102150.47;;;28.22;27.36
29359;BME280;16347;53.232;6.556;2022-07-18T12:16:28;102141.34;;;28.26;27.24
29359;BME280;16347;53.232;6.556;2022-07-18T12:19:00;102140.59;;;28.31;27.48
29359;BME280;16347;53.232;6.556;2022-07-18T12:21:45;102140.69;;;28.47;27.45
29359;BME280;16347;53.232;6.556;2022-07-18T12:24:24;102138.97;;;28.58;27.55
29359;BME280;16347;53.232;6.556;2022-07-18T12:27:19;102139.34;;;28.73;26.33
29359;BME280;16347;53.232;6.556;2022-07-18T12:29:57;102132.00;;;28.84;26.50
29359;BME280;16347;53.232;6.556;2022-07-18T12:32:45;102131.94;;;28.95;27.12
29359;BME280;16347;53.232;6.556;2022-07-18T12:35:18;102129.50;;;28.99;25.57
29359;BME280;16347;53.232;6.556;2022-07-18T12:37:57;102124.81;;;29.16;25.43
29359;BME280;16347;53.232;6.556;2022-07-18T12:40:42;102125.38;;;29.30;25.95
29359;BME280;16347;53.232;6.556;2022-07-18T12:43:14;102130.22;;;29.34;26.11
29359;BME280;16347;53.232;6.556;2022-07-18T12:45:45;102129.44;;;29.39;25.75
29359;BME280;16347;53.232;6.556;2022-07-18T12:48:14;102125.16;;;29.48;26.02
29359;BME280;16347;53.232;6.556;2022-07-18T12:50:45;102125.34;;;29.58;25.69
29359;BME280;16347;53.232;6.556;2022-07-18T12:53:14;102126.84;;;29.66;26.51
29359;BME280;16347;53.232;6.556;2022-07-18T12:55:44;102116.56;;;29.71;26.08
29359;BME280;16347;53.232;6.556;2022-07-18T12:58:13;102118.69;;;29.81;26.32
29359;BME280;16347;53.232;6.556;2022-07-18T13:00:43;102113.09;;;29.97;26.05
29359;BME280;16347;53.232;6.556;2022-07-18T13:03:12;102115.97;;;30.02;26.60
29359;BME280;16347;53.232;6.556;2022-07-18T13:05:43;102124.88;;;30.16;26.80
29359;BME280;16347;53.232;6.556;2022-07-18T13:08:13;102118.22;;;30.22;25.46
29359;BME280;16347;53.232;6.556;2022-07-18T13:10:44;102116.28;;;30.23;25.13
29359;BME280;16347;53.232;6.556;2022-07-18T13:13:13;102113.94;;;30.36;25.74
29359;BME280;16347;53.232;6.556;2022-07-18T13:15:42;102120.16;;;30.38;25.81
29359;BME280;16347;53.232;6.556;2022-07-18T13:18:11;102110.88;;;30.38;25.63